Latest Coastal Weather Observations for Maroochydore

IDQ60701

Issued at 5:45 am EST Wednesday 1 October 2014 (issued every 10 minutes, with the page automatically refreshed every 10 minutes)

About coastal observations | Map of coastal stations | Coastal observations for QLD | Marine services | Other Formats
Station Details ID: 040861 Name: SUNSHINE COAST AIRPORT Lat: -26.60 Lon: 153.09 Height: 3.3 m
Data from the previous 72 hours. | See also: Recent months at Maroochydore
Date/Time
EST
Temp

°C
Wind Pressure Rain
since 9am
mm
Weather Cloud Vis
km
Sea
Height
m
Swell
Dir
 
Speed
knots
Gust
knots
hPa Trend Height
m
Period
s
Dir
01/05:30am 13.9 N 6 7 1017.6 - 0.0 - - 10 - - - -
01/05:00am 13.9 N 7 9 1017.5 - 0.0 - - 10 - - - -
01/04:30am 13.6 N 7 8 1017.4 - 0.0 - - 10 - - - -
01/04:00am 14.0 N 6 7 1017.3 - 0.0 - - 10 - - - -
01/03:30am 14.7 NNW 6 7 1017.3 - 0.0 - - 10 - - - -
01/03:00am 14.7 N 7 8 1017.4 - 0.0 - - 10 - - - -
01/02:30am 15.3 NNW 7 9 1017.6 - 0.0 - - 10 - - - -
01/02:00am 15.4 NNW 7 9 1017.8 - 0.0 - - 10 - - - -
01/01:30am 15.5 NNW 7 8 1018.0 - 0.0 - - 10 - - - -
01/01:00am 15.9 NNW 6 7 1018.3 - 0.0 - - 10 - - - -
01/12:30am 15.7 N 7 8 1018.3 - 0.0 - - 10 - - - -
01/12:00am 15.2 NNW 5 6 1018.8 - 0.0 - - 10 - - - -
 
Date/Time
EST
Temp

°C
Wind Pressure Rain
since 9am
mm
Weather Cloud Vis
km
Sea
Height
m
Swell
Dir
 
Speed
knots
Gust
knots
hPa Trend Height
m
Period
s
Dir
30/11:30pm 15.9 NNW 5 6 1018.9 - 0.0 - - 10 - - - -
30/11:00pm 16.5 NW 6 7 1019.0 - 0.0 - - 10 - - - -
30/10:30pm 17.0 NNW 6 9 1018.9 - 0.0 - - 10 - - - -
30/10:00pm 17.5 NNW 7 9 1019.0 - 0.0 - - 10 - - - -
30/09:30pm 17.3 NW 7 8 1019.1 - 0.0 - - 10 - - - -
30/09:00pm 17.8 NW 6 8 1019.1 - 0.0 - - 10 - - - -
30/08:30pm 18.3 NNW 5 7 1019.1 - 0.0 - - 10 - - - -
30/08:00pm 19.5 N 9 12 1018.9 - 0.0 - - 10 - - - -
30/07:30pm 19.7 N 10 13 1018.7 - 0.0 - - 10 - - - -
30/07:00pm 20.1 N 11 15 1018.4 - 0.0 - - 10 - - - -
30/06:30pm 20.3 N 12 15 1018.2 - 0.0 - - 10 - - - -
30/06:00pm 20.5 N 12 16 1018.0 - 0.0 - - 10 - - - -
30/05:30pm 21.0 N 14 19 1017.7 - 0.0 - - 10 - - - -
30/05:00pm 21.7 N 14 20 1017.6 - 0.0 - - 10 - - - -
30/04:30pm 22.3 NNE 16 20 1017.4 - 0.0 - - 10 - - - -
30/04:00pm 22.9 NNE 15 19 1017.3 - 0.0 - - 10 - - - -
30/03:30pm 23.2 NNE 18 22 1017.3 - 0.0 - - 10 - - - -
30/03:00pm 23.4 NNE 17 21 1017.3 - 0.0 - - 10 - - - -
30/02:30pm 24.2 NNE 17 21 1017.7 - 0.0 - - 10 - - - -
30/02:00pm 24.1 NNE 16 22 1017.8 - 0.0 - - 10 - - - -
30/01:30pm 24.2 NNE 17 21 1018.1 - 0.0 - - 10 - - - -
30/01:00pm 24.4 NNE 17 21 1018.6 - 0.0 - - 10 - - - -
30/12:30pm 25.0 NNE 17 22 1018.9 - 0.0 - - 10 - - - -
30/12:00pm 24.2 NNE 17 21 1019.4 - 0.0 - - 10 - - - -
30/11:30am 24.8 NNE 15 19 1019.7 - 0.0 - - 10 - - - -
30/11:00am 24.4 NNE 15 19 1020.2 - 0.0 - - 10 - - - -
30/10:30am 24.8 NNE 12 16 1020.6 - 0.0 - - 10 - - - -
30/10:00am 24.9 NNW 9 13 1021.0 - 0.0 - - 10 - - - -
30/09:30am 24.4 WNW 7 9 1021.3 - 0.0 - - 10 - - - -
30/09:00am 23.1 NW 9 12 1021.6 - 0.0 - - 10 - - - -
30/08:30am 21.7 NW 10 14 1021.6 - 0.0 - - 10 - - - -
30/08:00am 20.7 NW 9 12 1021.4 - 0.0 - - 10 - - - -
30/07:30am 18.7 NW 7 10 1021.3 - 0.0 - - 10 - - - -
30/07:00am 16.5 NW 6 8 1021.2 - 0.0 - - 10 - - - -
30/06:30am 14.1 WNW 5 7 1020.9 - 0.0 - - 10 - - - -
30/06:00am 11.8 NW 4 5 1020.6 - 0.0 - - 10 - - - -
30/05:30am 11.3 WNW 6 7 1020.2 - 0.0 - - 10 - - - -
30/05:00am 11.5 WNW 6 7 1019.9 - 0.0 - - 10 - - - -
30/04:30am 11.7 WNW 6 7 1019.8 - 0.0 - - 10 - - - -
30/04:00am 11.5 WNW 6 7 1019.5 - 0.0 - - 10 - - - -
30/03:30am 11.4 WNW 5 5 1019.3 - 0.0 - - 10 - - - -
30/03:00am 12.1 WNW 4 5 1019.3 - 0.0 - - 10 - - - -
30/02:30am 12.3 NW 5 6 1019.4 - 0.0 - - 10 - - - -
30/02:00am 12.3 CALM 0 0 1019.5 - 0.0 - - 10 - - - -
30/01:30am 13.0 NW 1 4 1019.6 - 0.0 - - 10 - - - -
30/01:00am 13.6 NW 7 8 1019.4 - 0.0 - - 10 - - - -
30/12:30am 12.3 WNW 5 7 1019.7 - 0.0 - - 10 - - - -
30/12:00am 13.0 WNW 3 3 1019.9 - 0.0 - - 10 - - - -
 
Date/Time
EST
Temp

°C
Wind Pressure Rain
since 9am
mm
Weather Cloud Vis
km
Sea
Height
m
Swell
Dir
 
Speed
knots
Gust
knots
hPa Trend Height
m
Period
s
Dir
29/11:30pm 13.2 NW 6 7 1020.0 - 0.0 - - 10 - - - -
29/11:00pm 13.5 WNW 5 6 1020.3 - 0.0 - - 10 - - - -
29/10:30pm 14.1 WNW 6 7 1020.3 - 0.0 - - 10 - - - -
29/10:00pm 13.8 WNW 7 8 1020.5 - 0.0 - - 10 - - - -
29/09:30pm 14.2 WNW 6 8 1020.5 - 0.0 - - 10 - - - -
29/09:00pm 14.3 WNW 6 6 1020.4 - 0.0 - - 10 - - - -
29/08:30pm 14.9 WNW 5 6 1020.3 - 0.0 - - 10 - - - -
29/08:00pm 15.4 NW 5 6 1020.0 - 0.0 - - 10 - - - -
29/07:30pm 16.0 NW 4 5 1019.7 - 0.0 - - 10 - - - -
29/07:00pm 17.4 N 6 7 1019.3 - 0.0 - - 10 - - - -
29/06:30pm 18.1 N 7 9 1019.0 - 0.0 - - 10 - - - -
29/06:00pm 18.5 N 8 11 1018.9 - 0.0 - - 10 - - - -
29/05:30pm 19.8 N 9 12 1018.8 - 0.0 - - 10 - - - -
29/05:00pm 20.8 NNE 10 14 1018.5 - 0.0 - - 10 - - - -
29/04:30pm 21.5 NNE 11 14 1018.2 - 0.0 - - 10 - - - -
29/04:00pm 22.2 NNE 12 15 1018.0 - 0.0 - - 10 - - - -
29/03:30pm 22.4 NNE 12 16 1018.0 - 0.0 - - 10 - - - -
29/03:00pm 23.3 NNE 13 16 1017.9 - 0.0 - - 10 - - - -
29/02:30pm 23.0 NNE 14 16 1018.0 - 0.0 - - 10 - - - -
29/02:00pm 23.2 NNE 12 16 1018.2 - 0.0 - - 10 - - - -
29/01:30pm 23.4 NNE 11 14 1018.4 - 0.0 - - 10 - - - -
29/01:00pm 23.7 NNE 11 14 1019.0 - 0.0 - - 10 - - - -
29/12:30pm 23.7 NE 11 13 1019.5 - 0.0 - - 10 - - - -
29/12:00pm 24.3 NE 11 15 1019.8 - 0.0 - - 10 - - - -
29/11:30am 23.7 NE 10 13 1020.2 - 0.0 - - 10 - - - -
29/11:00am 23.9 NE 9 12 1020.6 - 0.0 - - 10 - - - -
29/10:30am 23.4 NE 8 10 1021.0 - 0.0 - - 10 - - - -
29/10:00am 23.5 ENE 7 9 1021.3 - 0.0 - - 10 - - - -
29/09:30am 22.2 ENE 7 9 1021.4 - 0.0 - - 10 - - - -
29/09:00am 22.7 E 5 7 1021.8 - 0.0 - - 10 - - - -
29/08:30am 21.9 E 5 6 1021.8 - 0.0 - - 10 - - - -
29/08:00am 20.2 SW 3 5 1021.8 - 0.0 - - 10 - - - -
29/07:30am 18.3 WSW 3 4 1021.7 - 0.0 - Partly cloudy 10 - - - -
29/07:00am 16.1 WSW 3 5 1021.6 - 0.0 - Cloudy 10 - - - -
29/06:30am 15.0 W 3 4 1021.2 - 0.0 - Partly cloudy 10 - - - -
29/06:00am 14.0 W 3 4 1020.7 - 0.0 - Mostly cloudy 10 - - - -
29/05:30am 13.5 W 4 5 1020.4 - 0.0 - Partly cloudy 10 - - - -
29/05:00am 12.9 CALM 0 0 1020.1 - 0.0 - Partly cloudy 10 - - - -
29/04:30am 13.0 CALM 0 0 1019.8 - 0.0 - Partly cloudy 10 - - - -
29/04:00am 13.1 CALM 0 0 1019.5 - 0.0 - Partly cloudy 10 - - - -
29/03:30am 13.4 W 4 5 1019.5 - 0.0 - Partly cloudy 10 - - - -
29/03:00am 13.9 W 4 4 1019.6 - 0.0 - Partly cloudy 10 - - - -
29/02:30am 14.6 W 3 3 1019.9 - 0.0 - Partly cloudy 10 - - - -
29/02:00am 15.0 W 4 4 1020.3 - 0.0 - Cloudy 10 - - - -
29/01:30am 15.4 WNW 4 5 1020.6 - 0.0 - Partly cloudy 10 - - - -
29/01:00am 15.6 W 5 6 1020.8 - 0.0 - Partly cloudy 10 - - - -
29/12:30am 15.7 WSW 5 6 1021.1 - 0.0 - Partly cloudy 10 - - - -
29/12:00am 15.9 WSW 4 6 1021.3 - 0.0 - Mostly cloudy 10 - - - -
 
Date/Time
EST
Temp

°C
Wind Pressure Rain
since 9am
mm
Weather Cloud Vis
km
Sea
Height
m
Swell
Dir
 
Speed
knots
Gust
knots
hPa Trend Height
m
Period
s
Dir
28/11:30pm 16.0 W 4 7 1021.4 - 0.0 - Partly cloudy 10 - - - -
28/11:00pm 16.0 W 3 7 1021.3 - 0.0 - Cloudy 10 - - - -
28/10:30pm 15.3 W 5 6 1021.3 - 0.0 - Partly cloudy 10 - - - -
28/10:00pm 16.5 W 4 5 1021.4 - 0.0 - Cloudy 10 - - - -
28/09:30pm 19.6 ESE 6 9 1021.4 - 0.0 - Partly cloudy 10 - - - -
28/09:00pm 19.7 ESE 7 10 1021.4 - 0.0 - Partly cloudy 10 - - - -
28/08:30pm 19.5 ESE 8 11 1021.2 - 0.0 - Partly cloudy 10 - - - -
28/08:00pm 19.5 ESE 7 11 1020.8 - 0.0 - - 10 - - - -
28/07:30pm 19.6 E 7 9 1020.6 - 0.0 - - 10 - - - -
28/07:00pm 19.4 E 6 9 1020.2 - 0.0 - - 10 - - - -
28/06:30pm 19.5 ESE 7 9 1020.0 - 0.0 - - 10 - - - -
28/06:00pm 19.5 E 6 8 1020.0 - 0.0 - - 10 - - - -
28/05:30pm 20.1 E 7 9 1019.7 - 0.0 - - 10 - - - -
28/05:00pm 20.8 E 7 9 1019.7 - 0.0 - - 10 - - - -
28/04:30pm 21.3 E 9 11 1019.6 - 0.0 - - 10 - - - -
28/04:00pm 21.7 ESE 10 12 1019.6 - 0.0 - - 10 - - - -
28/03:30pm 22.2 E 9 12 1019.5 - 0.0 - - 10 - - - -
28/03:00pm 22.6 E 9 11 1019.6 - 0.0 - - 10 - - - -
28/02:30pm 22.7 E 9 12 1019.6 - 0.0 - - 10 - - - -
28/02:00pm 22.4 ESE 10 13 1019.8 - 0.0 - - 10 - - - -
28/01:30pm 22.5 ESE 10 13 1020.0 - 0.0 - - 10 - - - -
28/01:00pm 22.5 ESE 10 13 1020.3 - 0.0 - - 10 - - - -
28/12:30pm 22.3 ESE 11 15 1020.6 - 0.0 - - 10 - - - -
28/12:00pm 22.0 SE 13 16 1020.9 - 0.0 - - 10 - - - -
28/11:30am 22.2 SE 13 17 1021.3 - 0.0 - - 10 - - - -
28/11:00am 22.5 SSE 13 16 1021.5 - 0.0 - - 10 - - - -
28/10:30am 21.8 SSE 12 16 1021.8 - 0.0 - - 10 - - - -
28/10:00am 22.2 SSE 11 14 1022.1 - 0.0 - Partly cloudy 10 - - - -
28/09:30am 21.9 SE 12 17 1022.0 - 0.0 - - 10 - - - -
28/09:00am 20.9 SSE 12 16 1021.9 - 11.2 - - 10 - - - -
28/08:30am 20.2 S 9 13 1021.7 - 11.2 - Partly cloudy 10 - - - -
28/08:00am 19.3 S 8 11 1021.7 - 11.2 - Partly cloudy 10 - - - -
28/07:30am 17.6 SSW 8 10 1021.7 - 11.2 - Partly cloudy 10 - - - -
28/07:00am 16.9 SW 4 6 1021.5 - 11.2 - Partly cloudy 10 - - - -
28/06:30am 16.2 SW 5 7 1021.2 - 11.2 - Partly cloudy 10 - - - -
28/06:00am 16.0 SW 5 7 1020.8 - 11.2 - Partly cloudy 10 - - - -

Other Formats:

Comma delimited format used in spreadsheet applications
http://www.bom.gov.au/fwo/IDQ60701/IDQ60701.94569.axf

JavaScript Object Notation format (JSON) in row-major order
http://www.bom.gov.au/fwo/IDQ60701/IDQ60701.94569.json